Search for airport 
image banner adimage banner adimage banner ad
image banner ad

85PA - Krumenacker

Located in Carrolltown, United States

ICAO - 85PA, IATA -

Data provided by Airmate  

General information

Coordinates: N40°35'42" W78°46'42"
Elevation is 2040 feet MSL.
Magnetic variation is -09° East
View others Airports in Pennsylvania

Operational data

Special qualification required
Current time UTC:
Current local time:
METAR: KIDI 182315Z AUTO 34004KT 10SM CLR 25/06 A3031 RMK A01
View NOTAMs / SUP AIP / TFR affecting this airport [VIEW]
Communications frequencies: [VIEW]

Runways:

RWY identifierQFULength (ft)Width (ft)SurfaceLDA (ft)
07144060GRASS
25144060GRASS

Airport contact information

Address: Carrolltown United States

Satellite view of 85PA